sensor_id;sensor_type;location;lat;lon;timestamp;temperature;humidity
11005;DHT22;5555;59.622;16.556;2023-01-15T00:01:01;3.10;99.90
11005;DHT22;5555;59.622;16.556;2023-01-15T00:03:27;3.10;99.90
11005;DHT22;5555;59.622;16.556;2023-01-15T00:05:53;3.10;99.90
11005;DHT22;5555;59.622;16.556;2023-01-15T00:08:19;3.20;99.90
11005;DHT22;5555;59.622;16.556;2023-01-15T00:10:45;3.20;99.90
11005;DHT22;5555;59.622;16.556;2023-01-15T00:13:11;3.20;99.90
11005;DHT22;5555;59.622;16.556;2023-01-15T00:15:36;3.20;99.90
11005;DHT22;5555;59.622;16.556;2023-01-15T00:18:02;3.30;99.90
11005;DHT22;5555;59.622;16.556;2023-01-15T00:20:28;3.30;99.90
11005;DHT22;5555;59.622;16.556;2023-01-15T00:22:54;3.30;99.90
11005;DHT22;5555;59.622;16.556;2023-01-15T00:25:19;3.40;99.90
11005;DHT22;5555;59.622;16.556;2023-01-15T00:28:04;3.40;99.90
11005;DHT22;5555;59.622;16.556;2023-01-15T00:30:29;3.40;99.90
11005;DHT22;5555;59.622;16.556;2023-01-15T00:32:56;3.40;99.90
11005;DHT22;5555;59.622;16.556;2023-01-15T00:35:23;3.30;99.90
11005;DHT22;5555;59.622;16.556;2023-01-15T00:37:49;3.30;99.90
11005;DHT22;5555;59.622;16.556;2023-01-15T00:40:17;3.40;99.90
11005;DHT22;5555;59.622;16.556;2023-01-15T00:42:43;3.40;99.90
11005;DHT22;5555;59.622;16.556;2023-01-15T00:45:10;3.40;99.90
11005;DHT22;5555;59.622;16.556;2023-01-15T00:47:41;3.50;99.90
11005;DHT22;5555;59.622;16.556;2023-01-15T00:50:09;3.50;99.90
11005;DHT22;5555;59.622;16.556;2023-01-15T00:52:35;3.50;99.90
11005;DHT22;5555;59.622;16.556;2023-01-15T00:55:01;3.50;99.90
11005;DHT22;5555;59.622;16.556;2023-01-15T00:57:26;3.60;99.90
11005;DHT22;5555;59.622;16.556;2023-01-15T00:59:52;3.60;99.90
11005;DHT22;5555;59.622;16.556;2023-01-15T01:02:18;3.60;99.90
11005;DHT22;5555;59.622;16.556;2023-01-15T01:04:43;3.60;99.90
11005;DHT22;5555;59.622;16.556;2023-01-15T01:07:10;3.60;99.90
11005;DHT22;5555;59.622;16.556;2023-01-15T01:09:35;3.70;99.90
11005;DHT22;5555;59.622;16.556;2023-01-15T01:12:01;3.70;99.90
11005;DHT22;5555;59.622;16.556;2023-01-15T01:14:27;3.70;99.90
11005;DHT22;5555;59.622;16.556;2023-01-15T01:16:53;3.60;99.90
11005;DHT22;5555;59.622;16.556;2023-01-15T01:19:21;3.60;99.90
11005;DHT22;5555;59.622;16.556;2023-01-15T01:21:47;3.70;99.90
11005;DHT22;5555;59.622;16.556;2023-01-15T01:24:19;3.70;99.90
11005;DHT22;5555;59.622;16.556;2023-01-15T01:26:45;3.60;99.90
11005;DHT22;5555;59.622;16.556;2023-01-15T01:29:13;3.70;99.90
11005;DHT22;5555;59.622;16.556;2023-01-15T01:31:39;3.60;99.90
11005;DHT22;5555;59.622;16.556;2023-01-15T01:34:05;3.60;99.90
11005;DHT22;5555;59.622;16.556;2023-01-15T01:36:33;3.60;99.90
11005;DHT22;5555;59.622;16.556;2023-01-15T01:39:00;3.60;99.90
11005;DHT22;5555;59.622;16.556;2023-01-15T01:41:27;3.60;99.90
11005;DHT22;5555;59.622;16.556;2023-01-15T01:44:04;3.50;99.90
11005;DHT22;5555;59.622;16.556;2023-01-15T01:46:32;3.50;99.90
11005;DHT22;5555;59.622;16.556;2023-01-15T01:49:09;3.50;99.90
11005;DHT22;5555;59.622;16.556;2023-01-15T01:51:48;3.40;99.90
11005;DHT22;5555;59.622;16.556;2023-01-15T01:54:17;3.40;99.90
11005;DHT22;5555;59.622;16.556;2023-01-15T01:56:44;3.30;99.90
11005;DHT22;5555;59.622;16.556;2023-01-15T01:59:10;3.30;99.90
11005;DHT22;5555;59.622;16.556;2023-01-15T02:01:37;3.20;99.90
11005;DHT22;5555;59.622;16.556;2023-01-15T02:04:05;3.20;99.90
11005;DHT22;5555;59.622;16.556;2023-01-15T02:06:32;3.20;99.90
11005;DHT22;5555;59.622;16.556;2023-01-15T02:08:58;3.20;99.90
11005;DHT22;5555;59.622;16.556;2023-01-15T02:11:24;3.20;99.90
11005;DHT22;5555;59.622;16.556;2023-01-15T02:14:42;3.10;99.90
11005;DHT22;5555;59.622;16.556;2023-01-15T02:17:24;3.10;99.90
11005;DHT22;5555;59.622;16.556;2023-01-15T02:20:05;3.10;99.90
11005;DHT22;5555;59.622;16.556;2023-01-15T02:25:13;3.00;99.90
11005;DHT22;5555;59.622;16.556;2023-01-15T02:27:49;3.00;99.90
11005;DHT22;5555;59.622;16.556;2023-01-15T02:30:18;2.90;99.90
11005;DHT22;5555;59.622;16.556;2023-01-15T02:35:28;2.80;99.90
11005;DHT22;5555;59.622;16.556;2023-01-15T02:38:01;2.70;99.90
11005;DHT22;5555;59.622;16.556;2023-01-15T02:40:30;2.70;99.90
11005;DHT22;5555;59.622;16.556;2023-01-15T02:42:57;2.60;99.90
11005;DHT22;5555;59.622;16.556;2023-01-15T02:45:30;2.60;99.90
11005;DHT22;5555;59.622;16.556;2023-01-15T02:47:59;2.50;99.90
11005;DHT22;5555;59.622;16.556;2023-01-15T02:50:31;2.50;99.90
11005;DHT22;5555;59.622;16.556;2023-01-15T02:53:02;2.50;99.90
11005;DHT22;5555;59.622;16.556;2023-01-15T02:55:34;2.40;99.90
11005;DHT22;5555;59.622;16.556;2023-01-15T02:58:03;2.40;99.90
11005;DHT22;5555;59.622;16.556;2023-01-15T03:00:33;2.40;99.90
11005;DHT22;5555;59.622;16.556;2023-01-15T03:03:13;2.30;99.90
11005;DHT22;5555;59.622;16.556;2023-01-15T03:05:47;2.30;99.90
11005;DHT22;5555;59.622;16.556;2023-01-15T03:08:16;2.30;99.90
11005;DHT22;5555;59.622;16.556;2023-01-15T03:10:54;2.30;99.90
11005;DHT22;5555;59.622;16.556;2023-01-15T03:13:28;2.30;99.90
11005;DHT22;5555;59.622;16.556;2023-01-15T03:16:20;2.20;99.90
11005;DHT22;5555;59.622;16.556;2023-01-15T03:27:14;2.20;99.90
11005;DHT22;5555;59.622;16.556;2023-01-15T03:29:46;2.20;99.90
11005;DHT22;5555;59.622;16.556;2023-01-15T03:32:13;2.20;99.90
11005;DHT22;5555;59.622;16.556;2023-01-15T03:34:43;2.20;99.90
11005;DHT22;5555;59.622;16.556;2023-01-15T03:37:09;2.20;99.90
11005;DHT22;5555;59.622;16.556;2023-01-15T03:39:35;2.20;99.90
11005;DHT22;5555;59.622;16.556;2023-01-15T03:42:31;2.20;99.90
11005;DHT22;5555;59.622;16.556;2023-01-15T03:45:08;2.10;99.90
11005;DHT22;5555;59.622;16.556;2023-01-15T03:47:48;2.10;99.90
11005;DHT22;5555;59.622;16.556;2023-01-15T03:50:46;2.10;99.90
11005;DHT22;5555;59.622;16.556;2023-01-15T03:53:39;2.00;99.90
11005;DHT22;5555;59.622;16.556;2023-01-15T03:58:42;1.90;99.90
11005;DHT22;5555;59.622;16.556;2023-01-15T04:01:12;1.90;99.90
11005;DHT22;5555;59.622;16.556;2023-01-15T04:03:38;1.80;99.90
11005;DHT22;5555;59.622;16.556;2023-01-15T04:06:05;1.70;99.90
11005;DHT22;5555;59.622;16.556;2023-01-15T04:08:38;1.70;99.90
11005;DHT22;5555;59.622;16.556;2023-01-15T04:11:05;1.60;99.90
11005;DHT22;5555;59.622;16.556;2023-01-15T04:13:31;1.50;99.90
11005;DHT22;5555;59.622;16.556;2023-01-15T04:15:58;1.50;99.90
11005;DHT22;5555;59.622;16.556;2023-01-15T04:18:23;1.40;99.90
11005;DHT22;5555;59.622;16.556;2023-01-15T04:20:49;1.40;99.90
11005;DHT22;5555;59.622;16.556;2023-01-15T04:23:15;1.40;99.90
11005;DHT22;5555;59.622;16.556;2023-01-15T04:25:41;1.40;99.90
11005;DHT22;5555;59.622;16.556;2023-01-15T04:28:07;1.40;99.90
11005;DHT22;5555;59.622;16.556;2023-01-15T04:30:33;1.50;99.90
11005;DHT22;5555;59.622;16.556;2023-01-15T04:33:00;1.40;99.90
11005;DHT22;5555;59.622;16.556;2023-01-15T04:35:25;1.40;99.90
11005;DHT22;5555;59.622;16.556;2023-01-15T04:37:58;1.50;99.90
11005;DHT22;5555;59.622;16.556;2023-01-15T04:40:25;1.50;99.90
11005;DHT22;5555;59.622;16.556;2023-01-15T04:43:19;1.50;99.90
11005;DHT22;5555;59.622;16.556;2023-01-15T04:46:04;1.50;99.90
11005;DHT22;5555;59.622;16.556;2023-01-15T04:48:29;1.60;99.90
11005;DHT22;5555;59.622;16.556;2023-01-15T04:50:55;1.70;99.90
11005;DHT22;5555;59.622;16.556;2023-01-15T04:53:21;1.70;99.90
11005;DHT22;5555;59.622;16.556;2023-01-15T04:55:47;1.80;99.90
11005;DHT22;5555;59.622;16.556;2023-01-15T04:58:12;1.90;99.90
11005;DHT22;5555;59.622;16.556;2023-01-15T05:00:39;1.90;99.90
11005;DHT22;5555;59.622;16.556;2023-01-15T05:03:04;2.00;99.90
11005;DHT22;5555;59.622;16.556;2023-01-15T05:05:31;2.00;99.90
11005;DHT22;5555;59.622;16.556;2023-01-15T05:07:57;2.10;99.90
11005;DHT22;5555;59.622;16.556;2023-01-15T05:10:22;2.20;99.90
11005;DHT22;5555;59.622;16.556;2023-01-15T05:12:48;2.40;99.90
11005;DHT22;5555;59.622;16.556;2023-01-15T05:15:13;2.40;99.90
11005;DHT22;5555;59.622;16.556;2023-01-15T05:17:39;2.40;99.90
11005;DHT22;5555;59.622;16.556;2023-01-15T05:20:05;2.50;99.90
11005;DHT22;5555;59.622;16.556;2023-01-15T05:22:31;2.70;99.90
11005;DHT22;5555;59.622;16.556;2023-01-15T05:24:56;2.70;99.90
11005;DHT22;5555;59.622;16.556;2023-01-15T05:27:22;2.80;99.90
11005;DHT22;5555;59.622;16.556;2023-01-15T05:29:47;2.80;99.90
11005;DHT22;5555;59.622;16.556;2023-01-15T05:32:13;2.90;99.90
11005;DHT22;5555;59.622;16.556;2023-01-15T05:34:38;2.90;99.90
11005;DHT22;5555;59.622;16.556;2023-01-15T05:37:04;3.00;99.90
11005;DHT22;5555;59.622;16.556;2023-01-15T05:39:30;3.10;99.90
11005;DHT22;5555;59.622;16.556;2023-01-15T05:41:55;3.10;99.90
11005;DHT22;5555;59.622;16.556;2023-01-15T05:44:26;3.10;99.90
11005;DHT22;5555;59.622;16.556;2023-01-15T05:46:54;3.10;99.90
11005;DHT22;5555;59.622;16.556;2023-01-15T05:49:23;3.00;99.90
11005;DHT22;5555;59.622;16.556;2023-01-15T05:51:50;3.10;99.90
11005;DHT22;5555;59.622;16.556;2023-01-15T05:54:19;3.10;99.90
11005;DHT22;5555;59.622;16.556;2023-01-15T05:56:45;3.10;99.90
11005;DHT22;5555;59.622;16.556;2023-01-15T05:59:12;3.10;99.90
11005;DHT22;5555;59.622;16.556;2023-01-15T06:01:39;3.10;99.90
11005;DHT22;5555;59.622;16.556;2023-01-15T06:04:05;3.20;99.90
11005;DHT22;5555;59.622;16.556;2023-01-15T06:06:32;3.20;99.90
11005;DHT22;5555;59.622;16.556;2023-01-15T06:08:58;3.20;99.90
11005;DHT22;5555;59.622;16.556;2023-01-15T06:11:24;3.20;99.90
11005;DHT22;5555;59.622;16.556;2023-01-15T06:13:49;3.20;99.90
11005;DHT22;5555;59.622;16.556;2023-01-15T06:16:15;3.20;99.90
11005;DHT22;5555;59.622;16.556;2023-01-15T06:18:43;3.20;99.90
11005;DHT22;5555;59.622;16.556;2023-01-15T06:21:11;3.30;99.90
11005;DHT22;5555;59.622;16.556;2023-01-15T06:23:37;3.30;99.90
11005;DHT22;5555;59.622;16.556;2023-01-15T06:26:05;3.30;99.90
11005;DHT22;5555;59.622;16.556;2023-01-15T06:28:31;3.30;99.90
11005;DHT22;5555;59.622;16.556;2023-01-15T06:30:57;3.30;99.90
11005;DHT22;5555;59.622;16.556;2023-01-15T06:33:23;3.40;99.90
11005;DHT22;5555;59.622;16.556;2023-01-15T06:35:49;3.40;99.90
11005;DHT22;5555;59.622;16.556;2023-01-15T06:38:14;3.40;99.90
11005;DHT22;5555;59.622;16.556;2023-01-15T06:40:40;3.50;99.90
11005;DHT22;5555;59.622;16.556;2023-01-15T06:43:07;3.50;99.90
11005;DHT22;5555;59.622;16.556;2023-01-15T06:45:51;3.50;99.90
11005;DHT22;5555;59.622;16.556;2023-01-15T06:48:35;3.50;99.90
11005;DHT22;5555;59.622;16.556;2023-01-15T06:51:01;3.50;99.90
11005;DHT22;5555;59.622;16.556;2023-01-15T06:53:27;3.60;99.90
11005;DHT22;5555;59.622;16.556;2023-01-15T06:55:52;3.60;99.90
11005;DHT22;5555;59.622;16.556;2023-01-15T06:58:18;3.60;99.90
11005;DHT22;5555;59.622;16.556;2023-01-15T07:00:46;3.60;99.90
11005;DHT22;5555;59.622;16.556;2023-01-15T07:03:19;3.60;99.90
11005;DHT22;5555;59.622;16.556;2023-01-15T07:05:44;3.70;99.90
11005;DHT22;5555;59.622;16.556;2023-01-15T07:08:10;3.70;99.90
11005;DHT22;5555;59.622;16.556;2023-01-15T07:10:36;3.70;99.90
11005;DHT22;5555;59.622;16.556;2023-01-15T07:13:01;3.70;99.90
11005;DHT22;5555;59.622;16.556;2023-01-15T07:15:27;3.70;99.90
11005;DHT22;5555;59.622;16.556;2023-01-15T07:17:56;3.70;99.90
11005;DHT22;5555;59.622;16.556;2023-01-15T07:20:22;3.70;99.90
11005;DHT22;5555;59.622;16.556;2023-01-15T07:22:51;3.60;99.90
11005;DHT22;5555;59.622;16.556;2023-01-15T07:25:17;3.60;99.90
11005;DHT22;5555;59.622;16.556;2023-01-15T07:27:45;3.60;99.90
11005;DHT22;5555;59.622;16.556;2023-01-15T07:30:12;3.60;99.90
11005;DHT22;5555;59.622;16.556;2023-01-15T07:32:38;3.60;99.90
11005;DHT22;5555;59.622;16.556;2023-01-15T07:35:04;3.60;99.90
11005;DHT22;5555;59.622;16.556;2023-01-15T07:37:30;3.50;99.90
11005;DHT22;5555;59.622;16.556;2023-01-15T07:39:56;3.50;99.90
11005;DHT22;5555;59.622;16.556;2023-01-15T07:42:22;3.50;99.90
11005;DHT22;5555;59.622;16.556;2023-01-15T07:45:08;3.50;99.90
11005;DHT22;5555;59.622;16.556;2023-01-15T07:47:53;3.40;99.90
11005;DHT22;5555;59.622;16.556;2023-01-15T07:50:37;3.50;99.90
11005;DHT22;5555;59.622;16.556;2023-01-15T07:53:03;3.50;99.90
11005;DHT22;5555;59.622;16.556;2023-01-15T07:55:28;3.50;99.90
11005;DHT22;5555;59.622;16.556;2023-01-15T07:57:54;3.50;99.90
11005;DHT22;5555;59.622;16.556;2023-01-15T08:00:22;3.50;99.90
11005;DHT22;5555;59.622;16.556;2023-01-15T08:02:47;3.50;99.90
11005;DHT22;5555;59.622;16.556;2023-01-15T08:05:15;3.50;99.90
11005;DHT22;5555;59.622;16.556;2023-01-15T08:07:41;3.40;99.90
11005;DHT22;5555;59.622;16.556;2023-01-15T08:10:11;3.40;99.90
11005;DHT22;5555;59.622;16.556;2023-01-15T08:12:37;3.40;99.90
11005;DHT22;5555;59.622;16.556;2023-01-15T08:15:21;3.50;99.90
11005;DHT22;5555;59.622;16.556;2023-01-15T08:17:48;3.50;99.90
11005;DHT22;5555;59.622;16.556;2023-01-15T08:20:20;3.40;99.90
11005;DHT22;5555;59.622;16.556;2023-01-15T08:22:46;3.30;99.90
11005;DHT22;5555;59.622;16.556;2023-01-15T08:25:15;3.30;99.90
11005;DHT22;5555;59.622;16.556;2023-01-15T08:27:41;3.30;99.90
11005;DHT22;5555;59.622;16.556;2023-01-15T08:30:11;3.30;99.90
11005;DHT22;5555;59.622;16.556;2023-01-15T08:32:37;3.30;99.90
11005;DHT22;5555;59.622;16.556;2023-01-15T08:35:03;3.40;99.90
11005;DHT22;5555;59.622;16.556;2023-01-15T08:37:29;3.50;99.90
11005;DHT22;5555;59.622;16.556;2023-01-15T08:39:54;3.50;99.90
11005;DHT22;5555;59.622;16.556;2023-01-15T08:42:20;3.50;99.90
11005;DHT22;5555;59.622;16.556;2023-01-15T08:44:46;3.60;99.90
11005;DHT22;5555;59.622;16.556;2023-01-15T08:47:12;3.70;99.90
11005;DHT22;5555;59.622;16.556;2023-01-15T08:49:38;3.70;99.90
11005;DHT22;5555;59.622;16.556;2023-01-15T08:52:03;3.70;99.90
11005;DHT22;5555;59.622;16.556;2023-01-15T08:54:29;3.70;99.90
11005;DHT22;5555;59.622;16.556;2023-01-15T08:56:55;3.60;99.90
11005;DHT22;5555;59.622;16.556;2023-01-15T08:59:21;3.70;99.90
11005;DHT22;5555;59.622;16.556;2023-01-15T09:01:47;3.60;99.90
11005;DHT22;5555;59.622;16.556;2023-01-15T09:04:14;3.70;99.90
11005;DHT22;5555;59.622;16.556;2023-01-15T09:06:41;3.70;99.90
11005;DHT22;5555;59.622;16.556;2023-01-15T09:09:07;3.70;99.90
11005;DHT22;5555;59.622;16.556;2023-01-15T09:11:33;3.80;99.90
11005;DHT22;5555;59.622;16.556;2023-01-15T09:13:59;3.80;99.90
11005;DHT22;5555;59.622;16.556;2023-01-15T09:16:24;3.80;99.90
11005;DHT22;5555;59.622;16.556;2023-01-15T09:18:52;3.80;99.90
11005;DHT22;5555;59.622;16.556;2023-01-15T09:21:18;3.90;99.90
11005;DHT22;5555;59.622;16.556;2023-01-15T09:23:44;3.90;99.90
11005;DHT22;5555;59.622;16.556;2023-01-15T09:26:27;3.90;99.90
11005;DHT22;5555;59.622;16.556;2023-01-15T09:28:54;3.90;99.90
11005;DHT22;5555;59.622;16.556;2023-01-15T09:31:20;3.90;99.90
11005;DHT22;5555;59.622;16.556;2023-01-15T09:33:46;3.90;99.90
11005;DHT22;5555;59.622;16.556;2023-01-15T09:36:15;4.00;99.90
11005;DHT22;5555;59.622;16.556;2023-01-15T09:38:41;4.00;99.90
11005;DHT22;5555;59.622;16.556;2023-01-15T09:41:12;4.10;99.90
11005;DHT22;5555;59.622;16.556;2023-01-15T09:44:19;4.20;99.90
11005;DHT22;5555;59.622;16.556;2023-01-15T09:46:59;4.20;99.90
11005;DHT22;5555;59.622;16.556;2023-01-15T09:49:40;4.30;99.90
11005;DHT22;5555;59.622;16.556;2023-01-15T09:57:43;4.50;99.90
11005;DHT22;5555;59.622;16.556;2023-01-15T10:00:20;4.50;99.90
11005;DHT22;5555;59.622;16.556;2023-01-15T10:02:54;4.50;99.90
11005;DHT22;5555;59.622;16.556;2023-01-15T10:05:32;4.50;99.90
11005;DHT22;5555;59.622;16.556;2023-01-15T10:10:48;4.60;99.90
11005;DHT22;5555;59.622;16.556;2023-01-15T10:13:40;4.50;99.90
11005;DHT22;5555;59.622;16.556;2023-01-15T10:16:08;4.50;99.90
11005;DHT22;5555;59.622;16.556;2023-01-15T10:18:35;4.60;99.90
11005;DHT22;5555;59.622;16.556;2023-01-15T10:23:54;4.60;99.90
11005;DHT22;5555;59.622;16.556;2023-01-15T10:37:22;4.80;99.90
11005;DHT22;5555;59.622;16.556;2023-01-15T10:43:03;4.70;99.90
11005;DHT22;5555;59.622;16.556;2023-01-15T10:45:39;4.60;99.90
11005;DHT22;5555;59.622;16.556;2023-01-15T10:50:48;4.50;99.90
11005;DHT22;5555;59.622;16.556;2023-01-15T10:56:14;4.50;99.90
11005;DHT22;5555;59.622;16.556;2023-01-15T10:59:31;4.50;99.90
11005;DHT22;5555;59.622;16.556;2023-01-15T11:01:33;4.60;99.90
11005;DHT22;5555;59.622;16.556;2023-01-15T11:03:59;4.70;99.90
11005;DHT22;5555;59.622;16.556;2023-01-15T11:06:29;4.80;99.90
11005;DHT22;5555;59.622;16.556;2023-01-15T11:08:56;5.00;99.90
11005;DHT22;5555;59.622;16.556;2023-01-15T11:11:28;5.10;99.90
11005;DHT22;5555;59.622;16.556;2023-01-15T11:14:14;5.10;99.90
11005;DHT22;5555;59.622;16.556;2023-01-15T11:16:58;5.20;99.90
11005;DHT22;5555;59.622;16.556;2023-01-15T11:19:39;5.10;99.90
11005;DHT22;5555;59.622;16.556;2023-01-15T11:22:10;5.20;99.90
11005;DHT22;5555;59.622;16.556;2023-01-15T11:24:48;5.00;99.90
11005;DHT22;5555;59.622;16.556;2023-01-15T11:27:18;5.00;99.90
11005;DHT22;5555;59.622;16.556;2023-01-15T11:29:44;5.10;99.90
11005;DHT22;5555;59.622;16.556;2023-01-15T11:32:33;5.00;99.90
11005;DHT22;5555;59.622;16.556;2023-01-15T11:35:03;5.10;99.90
11005;DHT22;5555;59.622;16.556;2023-01-15T11:37:37;5.10;99.90
11005;DHT22;5555;59.622;16.556;2023-01-15T11:40:03;5.20;99.90
11005;DHT22;5555;59.622;16.556;2023-01-15T11:42:36;5.30;99.90
11005;DHT22;5555;59.622;16.556;2023-01-15T11:45:21;5.30;99.90
11005;DHT22;5555;59.622;16.556;2023-01-15T11:48:23;5.30;99.90
11005;DHT22;5555;59.622;16.556;2023-01-15T11:51:15;5.20;99.90
11005;DHT22;5555;59.622;16.556;2023-01-15T11:53:53;5.30;99.90
11005;DHT22;5555;59.622;16.556;2023-01-15T11:56:24;5.70;99.90
11005;DHT22;5555;59.622;16.556;2023-01-15T11:58:54;5.80;99.90
11005;DHT22;5555;59.622;16.556;2023-01-15T12:03:49;5.70;99.90
11005;DHT22;5555;59.622;16.556;2023-01-15T12:06:18;5.80;99.90
11005;DHT22;5555;59.622;16.556;2023-01-15T12:08:52;6.10;99.90
11005;DHT22;5555;59.622;16.556;2023-01-15T12:11:49;6.40;99.90
11005;DHT22;5555;59.622;16.556;2023-01-15T12:14:28;6.50;99.90
11005;DHT22;5555;59.622;16.556;2023-01-15T12:17:05;6.60;99.90
11005;DHT22;5555;59.622;16.556;2023-01-15T12:19:41;6.50;99.90
11005;DHT22;5555;59.622;16.556;2023-01-15T12:25:26;5.90;99.90
11005;DHT22;5555;59.622;16.556;2023-01-15T12:28:13;5.70;99.90
11005;DHT22;5555;59.622;16.556;2023-01-15T12:33:31;5.30;99.90
11005;DHT22;5555;59.622;16.556;2023-01-15T12:36:08;5.30;99.90
11005;DHT22;5555;59.622;16.556;2023-01-15T12:41:30;5.30;99.90
11005;DHT22;5555;59.622;16.556;2023-01-15T12:44:18;5.30;99.90
11005;DHT22;5555;59.622;16.556;2023-01-15T12:47:08;5.20;99.90
11005;DHT22;5555;59.622;16.556;2023-01-15T12:49:41;5.20;99.90
11005;DHT22;5555;59.622;16.556;2023-01-15T12:52:19;5.20;99.90
11005;DHT22;5555;59.622;16.556;2023-01-15T12:54:57;5.10;99.90
11005;DHT22;5555;59.622;16.556;2023-01-15T12:57:36;5.10;99.90
11005;DHT22;5555;59.622;16.556;2023-01-15T13:01:05;5.10;99.90
11005;DHT22;5555;59.622;16.556;2023-01-15T13:08:23;5.10;99.90
11005;DHT22;5555;59.622;16.556;2023-01-15T13:10:51;5.00;99.90
11005;DHT22;5555;59.622;16.556;2023-01-15T13:13:20;5.00;99.90
11005;DHT22;5555;59.622;16.556;2023-01-15T13:16:00;5.00;99.90
11005;DHT22;5555;59.622;16.556;2023-01-15T13:21:03;5.10;99.90
11005;DHT22;5555;59.622;16.556;2023-01-15T13:24:05;5.10;99.90
11005;DHT22;5555;59.622;16.556;2023-01-15T13:27:13;5.20;99.90
11005;DHT22;5555;59.622;16.556;2023-01-15T13:32:34;5.30;99.90
11005;DHT22;5555;59.622;16.556;2023-01-15T13:37:47;5.20;99.90
11005;DHT22;5555;59.622;16.556;2023-01-15T13:40:43;5.20;99.90
11005;DHT22;5555;59.622;16.556;2023-01-15T13:45:50;5.30;99.90
11005;DHT22;5555;59.622;16.556;2023-01-15T13:48:20;5.20;99.90
11005;DHT22;5555;59.622;16.556;2023-01-15T13:50:56;5.20;99.90
11005;DHT22;5555;59.622;16.556;2023-01-15T13:56:01;5.00;99.90
11005;DHT22;5555;59.622;16.556;2023-01-15T13:58:32;5.00;99.90
11005;DHT22;5555;59.622;16.556;2023-01-15T14:01:05;5.00;99.90
11005;DHT22;5555;59.622;16.556;2023-01-15T14:03:36;5.00;99.90
11005;DHT22;5555;59.622;16.556;2023-01-15T14:06:07;5.10;99.90
11005;DHT22;5555;59.622;16.556;2023-01-15T14:08:38;5.10;99.90
11005;DHT22;5555;59.622;16.556;2023-01-15T14:11:04;5.00;99.90
11005;DHT22;5555;59.622;16.556;2023-01-15T14:13:52;5.00;99.90
11005;DHT22;5555;59.622;16.556;2023-01-15T14:16:44;5.00;99.90
11005;DHT22;5555;59.622;16.556;2023-01-15T14:24:44;5.10;99.90
11005;DHT22;5555;59.622;16.556;2023-01-15T14:35:01;4.90;99.90
11005;DHT22;5555;59.622;16.556;2023-01-15T14:37:57;4.80;99.90
11005;DHT22;5555;59.622;16.556;2023-01-15T14:40:29;4.70;99.90
11005;DHT22;5555;59.622;16.556;2023-01-15T14:43:00;4.50;99.90
11005;DHT22;5555;59.622;16.556;2023-01-15T14:48:04;4.40;99.90
11005;DHT22;5555;59.622;16.556;2023-01-15T14:55:50;4.30;99.90
11005;DHT22;5555;59.622;16.556;2023-01-15T15:00:57;4.20;99.90
11005;DHT22;5555;59.622;16.556;2023-01-15T15:03:55;4.10;99.90
11005;DHT22;5555;59.622;16.556;2023-01-15T15:06:18;4.00;99.90
11005;DHT22;5555;59.622;16.556;2023-01-15T15:08:45;3.90;99.90
11005;DHT22;5555;59.622;16.556;2023-01-15T15:11:20;3.90;99.90
11005;DHT22;5555;59.622;16.556;2023-01-15T15:14:08;4.00;99.90
11005;DHT22;5555;59.622;16.556;2023-01-15T15:16:42;4.00;99.90
11005;DHT22;5555;59.622;16.556;2023-01-15T15:19:23;3.90;99.90
11005;DHT22;5555;59.622;16.556;2023-01-15T15:21:51;3.80;99.90
11005;DHT22;5555;59.622;16.556;2023-01-15T15:24:32;3.80;99.90
11005;DHT22;5555;59.622;16.556;2023-01-15T15:27:14;3.80;99.90
11005;DHT22;5555;59.622;16.556;2023-01-15T15:29:40;3.80;99.90
11005;DHT22;5555;59.622;16.556;2023-01-15T15:32:12;3.70;99.90
11005;DHT22;5555;59.622;16.556;2023-01-15T15:34:40;3.70;99.90
11005;DHT22;5555;59.622;16.556;2023-01-15T15:37:15;3.70;99.90
11005;DHT22;5555;59.622;16.556;2023-01-15T15:40:03;3.70;99.90
11005;DHT22;5555;59.622;16.556;2023-01-15T15:42:39;3.60;99.90
11005;DHT22;5555;59.622;16.556;2023-01-15T15:45:27;3.60;99.90
11005;DHT22;5555;59.622;16.556;2023-01-15T15:48:30;3.70;99.90
11005;DHT22;5555;59.622;16.556;2023-01-15T15:53:50;3.80;99.90
11005;DHT22;5555;59.622;16.556;2023-01-15T15:56:16;3.80;99.90
11005;DHT22;5555;59.622;16.556;2023-01-15T15:58:42;3.80;99.90
11005;DHT22;5555;59.622;16.556;2023-01-15T16:01:12;3.90;99.90
11005;DHT22;5555;59.622;16.556;2023-01-15T16:03:46;3.80;99.90
11005;DHT22;5555;59.622;16.556;2023-01-15T16:06:19;3.80;99.90
11005;DHT22;5555;59.622;16.556;2023-01-15T16:08:53;3.70;99.90
11005;DHT22;5555;59.622;16.556;2023-01-15T16:11:20;3.70;99.90
11005;DHT22;5555;59.622;16.556;2023-01-15T16:13:50;3.70;99.90
11005;DHT22;5555;59.622;16.556;2023-01-15T16:16:17;3.70;99.90
11005;DHT22;5555;59.622;16.556;2023-01-15T16:18:57;3.70;99.90
11005;DHT22;5555;59.622;16.556;2023-01-15T16:21:33;3.60;99.90
11005;DHT22;5555;59.622;16.556;2023-01-15T16:24:04;3.60;99.90
11005;DHT22;5555;59.622;16.556;2023-01-15T16:26:37;3.50;99.90
11005;DHT22;5555;59.622;16.556;2023-01-15T16:29:05;3.50;99.90
11005;DHT22;5555;59.622;16.556;2023-01-15T16:31:35;3.60;99.90
11005;DHT22;5555;59.622;16.556;2023-01-15T16:34:02;3.60;99.90
11005;DHT22;5555;59.622;16.556;2023-01-15T16:36:39;3.60;99.90
11005;DHT22;5555;59.622;16.556;2023-01-15T16:39:06;3.60;99.90
11005;DHT22;5555;59.622;16.556;2023-01-15T16:41:40;3.70;99.90
11005;DHT22;5555;59.622;16.556;2023-01-15T16:44:07;3.70;99.90
11005;DHT22;5555;59.622;16.556;2023-01-15T16:46:52;3.70;99.90
11005;DHT22;5555;59.622;16.556;2023-01-15T16:51:47;3.70;99.90
11005;DHT22;5555;59.622;16.556;2023-01-15T16:57:02;3.70;99.90
11005;DHT22;5555;59.622;16.556;2023-01-15T17:02:15;3.60;99.90
11005;DHT22;5555;59.622;16.556;2023-01-15T17:04:43;3.60;99.90
11005;DHT22;5555;59.622;16.556;2023-01-15T17:07:38;3.60;99.90
11005;DHT22;5555;59.622;16.556;2023-01-15T17:10:05;3.50;99.90
11005;DHT22;5555;59.622;16.556;2023-01-15T17:12:42;3.50;99.90
11005;DHT22;5555;59.622;16.556;2023-01-15T17:17:48;3.40;99.90
11005;DHT22;5555;59.622;16.556;2023-01-15T17:20:15;3.30;99.90
11005;DHT22;5555;59.622;16.556;2023-01-15T17:22:44;3.20;99.90
11005;DHT22;5555;59.622;16.556;2023-01-15T17:27:46;3.00;99.90
11005;DHT22;5555;59.622;16.556;2023-01-15T17:30:12;3.00;99.90
11005;DHT22;5555;59.622;16.556;2023-01-15T17:32:38;3.00;99.90
11005;DHT22;5555;59.622;16.556;2023-01-15T17:35:11;2.90;99.90
11005;DHT22;5555;59.622;16.556;2023-01-15T17:37:42;2.80;99.90
11005;DHT22;5555;59.622;16.556;2023-01-15T17:40:09;2.80;99.90
11005;DHT22;5555;59.622;16.556;2023-01-15T17:42:35;2.80;99.90
11005;DHT22;5555;59.622;16.556;2023-01-15T17:45:00;2.80;99.90
11005;DHT22;5555;59.622;16.556;2023-01-15T17:47:26;3.00;99.90
11005;DHT22;5555;59.622;16.556;2023-01-15T17:49:51;3.00;99.90
11005;DHT22;5555;59.622;16.556;2023-01-15T17:52:18;3.10;99.90
11005;DHT22;5555;59.622;16.556;2023-01-15T17:54:44;3.20;99.90
11005;DHT22;5555;59.622;16.556;2023-01-15T17:57:28;3.30;99.90
11005;DHT22;5555;59.622;16.556;2023-01-15T18:00:13;3.30;99.90
11005;DHT22;5555;59.622;16.556;2023-01-15T18:02:57;3.30;99.90
11005;DHT22;5555;59.622;16.556;2023-01-15T18:05:43;3.30;99.90
11005;DHT22;5555;59.622;16.556;2023-01-15T18:08:10;3.40;99.90